createdAt,value
2022-08-05T00:00:18.483Z,20.60
2022-08-05T00:02:51.098Z,20.80
2022-08-05T00:06:02.583Z,21.00
2022-08-05T00:08:32.923Z,20.90
2022-08-05T00:10:56.393Z,20.80
2022-08-05T00:13:38.954Z,20.80
2022-08-05T00:16:08.761Z,21.10
2022-08-05T00:18:36.536Z,21.30
2022-08-05T00:21:06.522Z,21.20
2022-08-05T00:23:46.643Z,21.00
2022-08-05T00:26:20.947Z,21.00
2022-08-05T00:28:49.824Z,21.20
2022-08-05T00:31:16.706Z,21.30
2022-08-05T00:34:54.817Z,21.40
2022-08-05T00:37:11.667Z,21.50
2022-08-05T00:39:57.537Z,21.60
2022-08-05T00:42:37.715Z,21.50
2022-08-05T00:45:13.526Z,21.00
2022-08-05T00:47:56.801Z,20.90
2022-08-05T00:50:25.501Z,20.50
2022-08-05T00:52:55.514Z,19.80
2022-08-05T00:55:42.413Z,19.60
2022-08-05T00:58:19.552Z,19.40
2022-08-05T01:00:47.246Z,19.10
2022-08-05T01:03:22.723Z,19.00
2022-08-05T01:05:54.557Z,18.90
2022-08-05T01:08:41.154Z,19.00
2022-08-05T01:11:37.221Z,19.20
2022-08-05T01:14:28.215Z,19.40
2022-08-05T01:17:21.518Z,19.50
2022-08-05T01:20:13.542Z,19.40
2022-08-05T01:22:57.408Z,19.20
2022-08-05T01:25:41.889Z,19.10
2022-08-05T01:28:30.972Z,19.50
2022-08-05T01:31:12.503Z,19.60
2022-08-05T01:34:14.818Z,19.70
2022-08-05T01:36:53.879Z,19.90
2022-08-05T01:39:46.273Z,19.90
2022-08-05T01:42:14.448Z,19.90
2022-08-05T01:44:44.162Z,20.10
2022-08-05T01:47:16.828Z,20.40
2022-08-05T01:50:01.404Z,20.40
2022-08-05T01:52:31.221Z,20.50
2022-08-05T01:55:04.610Z,20.50
2022-08-05T01:58:09.552Z,20.40
2022-08-05T02:00:29.922Z,20.40
2022-08-05T02:03:07.103Z,20.50
2022-08-05T02:05:53.456Z,20.60
2022-08-05T02:08:30.925Z,20.40
2022-08-05T02:11:05.018Z,20.40
2022-08-05T02:13:56.249Z,20.50
2022-08-05T02:16:42.418Z,20.70
2022-08-05T02:19:36.297Z,20.60
2022-08-05T02:22:26.775Z,20.60
2022-08-05T02:25:08.391Z,20.70
2022-08-05T02:27:58.038Z,20.70
2022-08-05T02:30:32.404Z,20.70
2022-08-05T02:33:03.393Z,20.60
2022-08-05T02:35:37.663Z,20.70
2022-08-05T02:38:12.460Z,20.80
2022-08-05T02:40:46.802Z,21.00
2022-08-05T02:43:16.645Z,21.10
2022-08-05T02:45:52.453Z,21.10
2022-08-05T02:48:29.186Z,21.10
2022-08-05T02:51:00.856Z,21.10
2022-08-05T02:53:38.952Z,21.20
2022-08-05T02:56:09.527Z,21.00
2022-08-05T02:58:43.502Z,20.90
2022-08-05T03:01:23.190Z,20.70
2022-08-05T03:04:02.053Z,20.60
2022-08-05T03:06:54.300Z,20.50
2022-08-05T03:09:36.146Z,20.60
2022-08-05T03:12:05.044Z,20.30
2022-08-05T03:14:31.768Z,20.00
2022-08-05T03:16:59.084Z,19.90
2022-08-05T03:19:33.834Z,19.70
2022-08-05T03:22:04.714Z,19.60
2022-08-05T03:24:32.289Z,19.70
2022-08-05T03:27:01.666Z,19.70
2022-08-05T03:29:45.392Z,19.80
2022-08-05T03:32:19.470Z,19.70
2022-08-05T03:34:51.110Z,19.80
2022-08-05T03:37:20.735Z,19.90
2022-08-05T03:40:00.882Z,19.80
2022-08-05T03:42:29.194Z,19.90
2022-08-05T03:44:58.726Z,19.80
2022-08-05T03:47:35.131Z,19.70
2022-08-05T03:50:02.346Z,19.70
2022-08-05T03:55:00.306Z,19.80
2022-08-05T03:56:03.960Z,20.00
2022-08-05T03:58:27.184Z,20.10
2022-08-05T04:00:57.881Z,20.10
2022-08-05T04:03:29.208Z,20.20
2022-08-05T04:05:59.266Z,20.10
2022-08-05T04:08:36.281Z,20.10
2022-08-05T04:11:05.961Z,20.00
2022-08-05T04:13:50.647Z,20.00
2022-08-05T04:16:24.150Z,19.90
2022-08-05T04:18:54.944Z,19.80
2022-08-05T04:22:09.431Z,20.00
2022-08-05T04:24:19.333Z,19.80
2022-08-05T04:26:50.061Z,19.80
2022-08-05T04:29:16.985Z,19.60
2022-08-05T04:31:43.677Z,19.70
2022-08-05T04:34:19.379Z,19.70
2022-08-05T04:36:57.823Z,19.80
2022-08-05T04:39:24.607Z,19.90
2022-08-05T04:41:54.451Z,19.90
2022-08-05T04:44:29.118Z,19.80
2022-08-05T04:46:59.404Z,19.90
2022-08-05T04:50:01.381Z,19.90
2022-08-05T04:52:14.588Z,19.90
2022-08-05T04:54:42.204Z,19.90
2022-08-05T04:57:08.909Z,19.90
2022-08-05T04:59:40.635Z,20.00
2022-08-05T05:02:37.540Z,20.00
2022-08-05T05:05:02.295Z,19.90
2022-08-05T05:07:32.200Z,19.80
2022-08-05T05:10:05.261Z,19.70
2022-08-05T05:12:33.360Z,19.70
2022-08-05T05:15:03.823Z,19.80
2022-08-05T05:17:56.349Z,19.90
2022-08-05T05:20:28.263Z,19.90
2022-08-05T05:22:56.326Z,19.80
2022-08-05T05:25:33.042Z,19.90
2022-08-05T05:28:08.454Z,19.90
2022-08-05T05:30:36.494Z,20.10
2022-08-05T05:33:16.077Z,20.20
2022-08-05T05:35:47.985Z,20.30
2022-08-05T05:38:22.628Z,20.40
2022-08-05T05:40:55.769Z,20.60
2022-08-05T05:43:57.154Z,20.60
2022-08-05T05:46:17.221Z,20.50
2022-08-05T05:48:46.047Z,20.70
2022-08-05T05:51:28.010Z,20.80
2022-08-05T05:53:59.297Z,20.70
2022-08-05T05:56:31.933Z,20.80
2022-08-05T05:59:03.156Z,20.80
2022-08-05T06:01:38.250Z,20.80
2022-08-05T06:04:12.046Z,20.80
2022-08-05T06:06:46.633Z,20.80
2022-08-05T06:09:26.641Z,20.70
2022-08-05T06:12:05.804Z,20.60
2022-08-05T06:14:40.229Z,20.60
2022-08-05T06:17:22.408Z,20.70
2022-08-05T06:19:57.162Z,20.60
2022-08-05T06:22:33.651Z,20.60
2022-08-05T06:25:24.395Z,20.40
2022-08-05T06:28:10.625Z,20.70
2022-08-05T06:30:38.711Z,20.90
2022-08-05T06:33:10.076Z,21.10
2022-08-05T06:36:08.210Z,21.10
2022-08-05T06:38:35.845Z,21.10
2022-08-05T06:41:03.426Z,21.40
2022-08-05T06:43:51.669Z,22.30
2022-08-05T06:46:17.449Z,22.60
2022-08-05T06:48:56.404Z,23.30
2022-08-05T06:51:29.853Z,23.50
2022-08-05T06:54:03.249Z,24.10
2022-08-05T06:56:34.319Z,24.10
2022-08-05T06:59:09.434Z,24.50
2022-08-05T07:01:40.699Z,24.00
2022-08-05T07:04:08.493Z,24.00
2022-08-05T07:06:37.032Z,23.70
2022-08-05T07:09:04.793Z,24.20
2022-08-05T07:11:37.329Z,25.20
2022-08-05T07:14:29.429Z,24.70
2022-08-05T07:17:58.777Z,23.90
2022-08-05T07:20:31.717Z,23.70
2022-08-05T07:22:43.078Z,24.10
2022-08-05T07:25:54.504Z,23.90
2022-08-05T07:28:09.703Z,23.90
2022-08-05T07:30:39.921Z,24.30
2022-08-05T07:33:16.978Z,24.60
2022-08-05T07:36:02.310Z,24.70
2022-08-05T07:38:43.654Z,25.00
2022-08-05T07:42:09.499Z,24.90
2022-08-05T07:44:19.255Z,23.70
2022-08-05T07:46:50.249Z,23.20
2022-08-05T07:49:19.141Z,23.50
2022-08-05T07:51:53.751Z,25.40
2022-08-05T07:54:31.112Z,26.30
2022-08-05T07:57:23.666Z,26.60
2022-08-05T07:59:48.821Z,25.80
2022-08-05T08:02:17.591Z,26.50
2022-08-05T08:04:49.965Z,27.40
2022-08-05T08:07:22.117Z,27.70
2022-08-05T08:09:49.968Z,29.10
2022-08-05T08:12:32.003Z,29.10
2022-08-05T08:15:05.430Z,27.60
2022-08-05T08:17:40.879Z,28.20
2022-08-05T08:20:42.588Z,29.40
2022-08-05T08:23:03.345Z,29.60
2022-08-05T08:26:00.895Z,30.20
2022-08-05T08:28:18.844Z,30.70
2022-08-05T08:31:04.617Z,28.70
2022-08-05T08:33:36.029Z,28.80
2022-08-05T08:36:39.052Z,30.00
2022-08-05T08:38:55.595Z,29.50
2022-08-05T08:41:26.128Z,28.60
2022-08-05T08:45:24.143Z,27.70
2022-08-05T08:47:03.193Z,26.90
2022-08-05T08:50:22.290Z,25.60
2022-08-05T08:52:33.329Z,25.10
2022-08-05T08:55:00.377Z,26.40
2022-08-05T08:57:42.092Z,26.20
2022-08-05T09:00:15.637Z,25.90
2022-08-05T09:02:45.994Z,26.70
2022-08-05T09:05:16.678Z,27.00
2022-08-05T09:07:57.838Z,27.10
2022-08-05T09:10:27.003Z,26.40
2022-08-05T09:12:55.455Z,27.10
2022-08-05T09:15:23.529Z,27.40
2022-08-05T09:17:52.924Z,28.10
2022-08-05T09:20:36.202Z,29.10
2022-08-05T09:23:18.862Z,29.90
2022-08-05T09:26:03.367Z,30.40
2022-08-05T09:28:34.954Z,30.90
2022-08-05T09:31:43.353Z,30.90
2022-08-05T09:34:01.014Z,30.40
2022-08-05T09:36:55.129Z,31.40
2022-08-05T09:39:24.788Z,31.10
2022-08-05T09:42:08.492Z,32.30
2022-08-05T09:44:42.302Z,32.30
2022-08-05T09:47:20.591Z,30.40
2022-08-05T09:49:57.079Z,29.40
2022-08-05T09:52:33.631Z,28.90
2022-08-05T09:55:06.413Z,30.30
2022-08-05T09:57:49.956Z,31.90
2022-08-05T10:00:26.490Z,31.80
2022-08-05T10:02:54.760Z,30.10
2022-08-05T10:05:27.570Z,27.70
2022-08-05T10:08:34.666Z,26.80
2022-08-05T10:10:44.741Z,28.70
2022-08-05T10:13:25.695Z,31.00
2022-08-05T10:16:00.420Z,31.90
2022-08-05T10:18:32.045Z,30.10
2022-08-05T10:21:11.974Z,28.90
2022-08-05T10:23:59.276Z,28.90
2022-08-05T10:26:31.737Z,27.00
2022-08-05T10:28:59.759Z,26.70
2022-08-05T10:32:54.722Z,28.50
2022-08-05T10:34:13.815Z,29.20
2022-08-05T10:36:41.772Z,29.50
2022-08-05T10:40:04.037Z,29.70
2022-08-05T10:42:33.600Z,29.00
2022-08-05T10:45:21.426Z,28.40
2022-08-05T10:48:30.042Z,27.50
2022-08-05T10:50:59.400Z,28.10
2022-08-05T10:53:45.382Z,29.50
2022-08-05T10:56:25.188Z,31.90
2022-08-05T10:58:58.625Z,29.70
2022-08-05T11:01:55.384Z,27.80
2022-08-05T11:04:31.697Z,26.60
2022-08-05T11:07:00.673Z,25.80
2022-08-05T11:09:45.495Z,25.40
2022-08-05T11:12:41.216Z,24.90
2022-08-05T11:15:20.143Z,24.40
2022-08-05T11:17:57.667Z,24.30
2022-08-05T11:20:38.944Z,24.30
2022-08-05T11:24:03.031Z,24.60
2022-08-05T11:26:28.710Z,27.20
2022-08-05T11:29:11.798Z,28.70
2022-08-05T11:31:56.417Z,28.10
2022-08-05T11:34:51.446Z,26.60
2022-08-05T11:38:28.003Z,26.00
2022-08-05T11:41:00.825Z,25.10
2022-08-05T11:44:01.084Z,24.50
2022-08-05T11:46:36.594Z,24.30
2022-08-05T11:49:13.317Z,24.40
2022-08-05T11:51:44.811Z,25.30
2022-08-05T11:54:34.399Z,27.70
2022-08-05T11:57:08.700Z,28.10
2022-08-05T11:59:50.857Z,27.10
2022-08-05T12:02:30.773Z,26.30
2022-08-05T12:05:06.954Z,26.80
2022-08-05T12:08:07.528Z,27.30
2022-08-05T12:10:43.732Z,26.20
2022-08-05T12:13:15.882Z,25.10
2022-08-05T12:15:45.276Z,24.10
2022-08-05T12:18:38.820Z,23.70
2022-08-05T12:21:15.210Z,23.50
2022-08-05T12:24:17.129Z,23.70
2022-08-05T12:26:52.737Z,24.50
2022-08-05T12:29:27.267Z,26.90
2022-08-05T12:31:58.406Z,26.60
2022-08-05T12:34:35.711Z,25.90
2022-08-05T12:37:10.748Z,25.30
2022-08-05T12:39:41.057Z,25.50
2022-08-05T12:42:17.401Z,26.30
2022-08-05T12:44:44.911Z,27.50
2022-08-05T12:47:13.724Z,28.40
2022-08-05T12:50:04.561Z,27.90
2022-08-05T12:52:39.230Z,26.60
2022-08-05T12:55:22.258Z,25.10
2022-08-05T12:58:49.718Z,24.60
2022-08-05T13:02:02.595Z,24.60
2022-08-05T13:03:32.474Z,24.20
2022-08-05T13:06:19.758Z,24.80
2022-08-05T13:08:52.935Z,25.40
2022-08-05T13:12:01.920Z,26.10
2022-08-05T13:14:24.835Z,27.10
2022-08-05T13:17:08.952Z,27.90
2022-08-05T13:19:52.337Z,27.50
2022-08-05T13:22:28.299Z,26.70
2022-08-05T13:25:05.089Z,25.80
2022-08-05T13:27:38.153Z,26.30
2022-08-05T13:30:32.957Z,25.60
2022-08-05T13:33:02.742Z,24.50
2022-08-05T13:35:42.421Z,24.00
2022-08-05T13:38:28.489Z,23.80
2022-08-05T13:41:00.097Z,24.20
2022-08-05T13:43:45.197Z,24.70
2022-08-05T13:46:35.790Z,24.70
2022-08-05T13:49:10.207Z,24.30
2022-08-05T13:51:46.503Z,24.20
2022-08-05T13:54:16.324Z,24.40
2022-08-05T13:56:51.454Z,24.50
2022-08-05T13:59:27.112Z,24.40
2022-08-05T14:01:58.628Z,24.20
2022-08-05T14:05:02.053Z,24.20
2022-08-05T14:07:59.475Z,24.00
2022-08-05T14:10:31.076Z,24.00
2022-08-05T14:13:07.649Z,24.10
2022-08-05T14:16:07.635Z,24.20
2022-08-05T14:18:26.181Z,23.90
2022-08-05T14:20:54.964Z,23.80
2022-08-05T14:23:24.871Z,23.70
2022-08-05T14:25:58.069Z,23.50
2022-08-05T14:28:29.187Z,23.30
2022-08-05T14:30:58.185Z,23.20
2022-08-05T14:33:26.039Z,23.30
2022-08-05T14:35:55.031Z,23.50
2022-08-05T14:38:32.064Z,23.80
2022-08-05T14:41:07.708Z,23.90
2022-08-05T14:43:58.883Z,23.80
2022-08-05T14:46:28.333Z,23.70
2022-08-05T14:49:06.298Z,23.40
2022-08-05T14:51:37.582Z,23.40
2022-08-05T14:54:27.891Z,23.50
2022-08-05T14:56:59.623Z,23.60
2022-08-05T14:59:29.356Z,23.70
2022-08-05T15:02:02.348Z,23.40
2022-08-05T15:04:29.777Z,23.30
2022-08-05T15:06:57.496Z,23.30
2022-08-05T15:09:52.833Z,23.50
2022-08-05T15:12:16.886Z,23.40
2022-08-05T15:14:49.953Z,23.60
2022-08-05T15:17:47.709Z,23.70
2022-08-05T15:20:18.786Z,23.30
2022-08-05T15:22:54.068Z,23.20
2022-08-05T15:25:51.712Z,23.00
2022-08-05T15:28:14.974Z,23.10
2022-08-05T15:30:45.778Z,23.40
2022-08-05T15:33:56.666Z,23.40
2022-08-05T15:36:03.701Z,23.50
2022-08-05T15:38:35.388Z,23.20
2022-08-05T15:41:22.059Z,23.30
2022-08-05T15:43:54.558Z,23.20
2022-08-05T15:46:21.497Z,22.80
2022-08-05T15:48:54.793Z,22.60
2022-08-05T15:52:13.974Z,22.50
2022-08-05T15:54:16.723Z,22.40
2022-08-05T15:56:43.755Z,22.50
2022-08-05T15:59:21.943Z,22.70
2022-08-05T16:01:52.427Z,22.80
2022-08-05T16:04:19.972Z,22.80
2022-08-05T16:06:46.695Z,22.70
2022-08-05T16:09:13.588Z,22.80
2022-08-05T16:11:43.368Z,22.80
2022-08-05T16:14:10.750Z,22.70
2022-08-05T16:16:44.729Z,22.40
2022-08-05T16:19:25.558Z,22.50
2022-08-05T16:22:03.024Z,22.40
2022-08-05T16:24:40.241Z,22.30
2022-08-05T16:27:09.215Z,22.50
2022-08-05T16:29:37.385Z,22.40
2022-08-05T16:32:05.277Z,22.50
2022-08-05T16:34:32.345Z,22.70
2022-08-05T16:36:59.097Z,22.60
2022-08-05T16:40:05.115Z,22.70
2022-08-05T16:42:17.576Z,22.60
2022-08-05T16:44:54.377Z,22.50
2022-08-05T16:47:36.008Z,22.40
2022-08-05T16:50:04.685Z,22.10
2022-08-05T16:52:33.689Z,22.10
2022-08-05T16:55:01.512Z,22.00
2022-08-05T16:57:53.460Z,21.90
2022-08-05T17:00:26.092Z,21.80
2022-08-05T17:03:15.329Z,21.40
2022-08-05T17:05:53.692Z,21.30
2022-08-05T17:08:36.134Z,21.10
2022-08-05T17:11:12.851Z,21.00
2022-08-05T17:13:43.476Z,20.90
2022-08-05T17:16:30.285Z,20.80
2022-08-05T17:18:57.308Z,20.80
2022-08-05T17:21:24.006Z,20.90
2022-08-05T17:24:05.653Z,21.00
2022-08-05T17:26:38.991Z,21.00
2022-08-05T17:29:10.162Z,20.80
2022-08-05T17:31:41.305Z,20.70
2022-08-05T17:34:30.190Z,20.70
2022-08-05T17:37:00.043Z,20.80
2022-08-05T17:39:34.434Z,20.70
2022-08-05T17:42:17.324Z,20.60
2022-08-05T17:44:50.335Z,20.60
2022-08-05T17:47:22.097Z,20.40
2022-08-05T17:50:04.370Z,20.40
2022-08-05T17:52:53.050Z,20.30
2022-08-05T17:55:22.796Z,20.30
2022-08-05T17:58:02.112Z,20.20
2022-08-05T18:00:29.367Z,20.10
2022-08-05T18:02:57.035Z,20.00
2022-08-05T18:05:24.161Z,20.00
2022-08-05T18:07:55.208Z,19.90
2022-08-05T18:10:24.088Z,19.90
2022-08-05T18:12:51.428Z,19.90
2022-08-05T18:15:18.168Z,19.80
2022-08-05T18:17:58.635Z,19.70
2022-08-05T18:20:32.033Z,19.70
2022-08-05T18:23:09.546Z,19.60
2022-08-05T18:25:44.079Z,19.50
2022-08-05T18:28:12.771Z,19.40
2022-08-05T18:30:50.798Z,19.30
2022-08-05T18:33:22.513Z,19.20
2022-08-05T18:36:04.893Z,19.20
2022-08-05T18:38:37.330Z,19.10
2022-08-05T18:41:56.550Z,19.10
2022-08-05T18:43:53.984Z,19.10
2022-08-05T18:46:21.206Z,19.00
2022-08-05T18:48:52.275Z,19.00
2022-08-05T18:52:06.301Z,18.90
2022-08-05T18:54:26.255Z,18.90
2022-08-05T18:56:55.061Z,18.80
2022-08-05T18:59:43.558Z,18.70
2022-08-05T19:02:11.345Z,18.70
2022-08-05T19:05:02.418Z,18.60
2022-08-05T19:07:46.669Z,18.60
2022-08-05T19:10:14.829Z,18.60
2022-08-05T19:12:43.025Z,18.50
2022-08-05T19:15:45.084Z,18.40
2022-08-05T19:18:09.739Z,18.30
2022-08-05T19:20:41.785Z,18.30
2022-08-05T19:23:22.596Z,18.30
2022-08-05T19:26:02.702Z,18.30
2022-08-05T19:28:31.176Z,18.30
2022-08-05T19:31:00.236Z,18.20
2022-08-05T19:33:35.461Z,18.30
2022-08-05T19:36:06.224Z,18.20
2022-08-05T19:38:35.718Z,18.20
2022-08-05T19:41:07.165Z,18.10
2022-08-05T19:44:06.984Z,18.00
2022-08-05T19:46:29.698Z,17.90
2022-08-05T19:49:01.036Z,17.90
2022-08-05T19:52:05.598Z,17.80
2022-08-05T19:54:26.844Z,17.80
2022-08-05T19:57:06.439Z,17.70
2022-08-05T19:59:55.552Z,17.60
2022-08-05T20:02:27.544Z,17.60
2022-08-05T20:04:58.953Z,17.70
2022-08-05T20:07:38.960Z,17.70
2022-08-05T20:10:16.385Z,17.60
2022-08-05T20:12:47.496Z,17.60
2022-08-05T20:15:23.318Z,17.80
2022-08-05T20:18:10.584Z,17.80
2022-08-05T20:20:55.021Z,17.80
2022-08-05T20:23:22.425Z,17.70
2022-08-05T20:25:49.366Z,17.60
2022-08-05T20:28:19.287Z,17.60
2022-08-05T20:30:46.165Z,17.50
2022-08-05T20:33:14.654Z,17.40
2022-08-05T20:35:45.510Z,17.30
2022-08-05T20:38:19.991Z,17.30
2022-08-05T20:40:50.473Z,17.30
2022-08-05T20:43:17.696Z,17.20
2022-08-05T20:46:06.696Z,17.30
2022-08-05T20:48:36.960Z,17.20
2022-08-05T20:51:08.261Z,17.20
2022-08-05T20:53:36.741Z,17.10
2022-08-05T20:56:08.438Z,17.00
2022-08-05T20:58:35.996Z,16.80
2022-08-05T21:01:04.148Z,16.80
2022-08-05T21:03:34.607Z,16.70
2022-08-05T21:06:01.978Z,16.60
2022-08-05T21:08:42.469Z,16.70
2022-08-05T21:11:12.760Z,16.60
2022-08-05T21:13:55.531Z,16.70
2022-08-05T21:16:22.806Z,16.80
2022-08-05T21:18:55.938Z,16.90
2022-08-05T21:21:26.929Z,16.80
2022-08-05T21:24:12.998Z,16.80
2022-08-05T21:26:41.448Z,16.60
2022-08-05T21:29:12.521Z,16.60
2022-08-05T21:31:43.493Z,16.30
2022-08-05T21:34:11.237Z,16.20
2022-08-05T21:36:38.576Z,16.20
2022-08-05T21:39:05.444Z,16.30
2022-08-05T21:41:35.462Z,16.30
2022-08-05T21:44:04.803Z,16.40
2022-08-05T21:46:34.279Z,16.40
2022-08-05T21:49:01.883Z,16.50
2022-08-05T21:52:21.870Z,16.60
2022-08-05T21:54:15.440Z,16.60
2022-08-05T21:56:44.639Z,16.60
2022-08-05T21:59:22.567Z,16.50
2022-08-05T22:01:51.846Z,16.50
2022-08-05T22:04:21.341Z,16.60
2022-08-05T22:06:52.487Z,16.60
2022-08-05T22:09:21.137Z,16.30
2022-08-05T22:11:48.636Z,16.20
2022-08-05T22:14:33.397Z,16.10
2022-08-05T22:17:06.614Z,16.00
2022-08-05T22:20:00.643Z,15.90
2022-08-05T22:22:28.032Z,15.90
2022-08-05T22:25:21.137Z,15.80
2022-08-05T22:28:11.308Z,15.80
2022-08-05T22:30:55.770Z,15.80
2022-08-05T22:33:56.326Z,15.90
2022-08-05T22:36:14.547Z,16.00
2022-08-05T22:38:48.315Z,15.90
2022-08-05T22:42:04.282Z,15.80
2022-08-05T22:44:09.396Z,15.60
2022-08-05T22:46:40.690Z,15.50
2022-08-05T22:49:23.235Z,15.40
2022-08-05T22:52:04.521Z,15.50
2022-08-05T22:54:35.435Z,15.60
2022-08-05T22:57:02.795Z,15.40
2022-08-05T22:59:43.833Z,15.60
2022-08-05T23:02:16.522Z,15.60
2022-08-05T23:04:51.591Z,15.60
2022-08-05T23:07:22.551Z,15.50
2022-08-05T23:09:58.256Z,15.60
2022-08-05T23:12:32.852Z,15.50
2022-08-05T23:15:08.549Z,15.60
2022-08-05T23:17:37.642Z,15.40
2022-08-05T23:20:24.436Z,15.30
2022-08-05T23:22:56.163Z,15.30
2022-08-05T23:25:53.093Z,15.10
2022-08-05T23:28:10.903Z,15.20
2022-08-05T23:30:39.733Z,15.00
2022-08-05T23:33:22.275Z,15.10
2022-08-05T23:35:55.846Z,15.10
2022-08-05T23:38:24.170Z,15.20
2022-08-05T23:40:52.563Z,15.10
2022-08-05T23:43:25.553Z,14.90
2022-08-05T23:46:21.421Z,14.80
2022-08-05T23:49:01.051Z,14.70
2022-08-05T23:51:53.959Z,14.60
2022-08-05T23:54:36.599Z,14.60
2022-08-05T23:57:06.008Z,14.40
